Time;durP1;ratioP1;P1;durP2;ratioP2;P2;SDS_P1;SDS_P2;PMS_P1;PMS_P2;Temp;Humidity;BMP_temperature;BMP_pressure;BME280_temperature;BME280_humidity;BME280_pressure;Samples;Min_cycle;Max_cycle;Signal;HPM_P1;HPM_P2
2022/02/28 00:01:14;;;;;;;;;;;;;;;-3.02;87.44;100832.28;1707971;84;20094;-64
2022/02/28 00:03:40;;;;;;;;;;;;;;;-2.99;87.64;100834.57;1708295;83;20086;-64
2022/02/28 00:06:25;;;;;;;;;;;;;;;-2.96;87.89;100836.04;1708065;84;20122;-64
2022/02/28 00:08:53;;;;;;;;;;;;;;;-2.92;88.16;100834.63;1708206;83;21152;-63
2022/02/28 00:11:19;;;;;;;;;;;;;;;-2.87;88.51;100832.97;1708027;84;20441;-62
2022/02/28 00:14:03;;;;;;;;;;;;;;;-2.83;88.67;100826.18;1707305;84;20099;-64
2022/02/28 00:16:32;;;;;;;;;;;;;;;-2.77;88.95;100826.73;1705022;83;20119;-64
2022/02/28 00:19:16;;;;;;;;;;;;;;;-2.73;88.97;100822.63;1685919;84;20094;-64
2022/02/28 00:21:42;;;;;;;;;;;;;;;-2.71;89.01;100820.56;1676977;85;21217;-64
2022/02/28 00:24:08;;;;;;;;;;;;;;;-2.67;89.31;100831.75;1706762;83;20111;-66
2022/02/28 00:26:35;;;;;;;;;;;;;;;-2.65;89.49;100821.64;1706729;84;20111;-64
2022/02/28 00:29:02;;;;;;;;;;;;;;;-2.63;89.61;100820.09;1706728;83;20123;-63
2022/02/28 00:31:29;;;;;;;;;;;;;;;-2.62;89.74;100819.89;1709424;82;20086;-63
2022/02/28 00:33:57;;;;;;;;;;;;;;;-2.61;89.85;100821.55;1709775;84;20470;-64
2022/02/28 00:36:26;;;;;;;;;;;;;;;-2.60;90.07;100825.91;1709779;84;20127;-63
2022/02/28 00:38:53;;;;;;;;;;;;;;;-2.56;90.44;100816.92;1709780;84;20090;-63
2022/02/28 00:41:20;;;;;;;;;;;;;;;-2.51;90.64;100817.99;1709858;84;20087;-64
2022/02/28 00:43:47;;;;;;;;;;;;;;;-2.45;90.71;100820.40;1709715;84;20095;-64
2022/02/28 00:46:14;;;;;;;;;;;;;;;-2.39;90.80;100825.81;1709839;84;21930;-65
2022/02/28 00:48:40;;;;;;;;;;;;;;;-2.37;90.66;100821.58;1709779;84;20111;-65
2022/02/28 00:51:07;;;;;;;;;;;;;;;-2.34;90.66;100821.17;1709755;84;20087;-65
2022/02/28 00:53:35;;;;;;;;;;;;;;;-2.32;90.69;100826.35;1709868;84;20103;-65
2022/02/28 00:56:02;;;;;;;;;;;;;;;-2.30;90.60;100821.05;1709771;84;20098;-65
2022/02/28 00:58:29;;;;;;;;;;;;;;;-2.29;90.70;100814.64;1710079;84;21121;-66
2022/02/28 01:00:57;;;;;;;;;;;;;;;-2.24;90.84;100819.42;1709878;84;20178;-65
2022/02/28 01:03:25;;;;;;;;;;;;;;;-2.22;90.89;100819.54;1707737;84;20122;-65
2022/02/28 01:06:10;;;;;;;;;;;;;;;-2.18;90.95;100819.97;1681384;85;20101;-65
2022/02/28 01:08:55;;;;;;;;;;;;;;;-2.16;90.83;100815.21;1678340;85;20117;-65
2022/02/28 01:11:21;;;;;;;;;;;;;;;-2.18;90.54;100815.41;1678693;85;21118;-64
2022/02/28 01:14:05;;;;;;;;;;;;;;;-2.21;90.53;100810.95;1677908;85;20136;-65
2022/02/28 01:16:32;;;;;;;;;;;;;;;-2.25;90.59;100810.52;1676017;85;20413;-65
2022/02/28 01:19:16;;;;;;;;;;;;;;;-2.28;90.59;100814.96;1676007;85;20113;-65
2022/02/28 01:21:42;;;;;;;;;;;;;;;-2.34;90.51;100817.97;1675990;85;20125;-66
2022/02/28 01:24:28;;;;;;;;;;;;;;;-2.38;90.52;100819.91;1675926;85;20125;-65
2022/02/28 01:26:54;;;;;;;;;;;;;;;-2.42;90.75;100828.89;1676074;85;20420;-65
2022/02/28 01:29:20;;;;;;;;;;;;;;;-2.43;91.15;100823.20;1676002;85;20441;-65
2022/02/28 01:31:47;;;;;;;;;;;;;;;-2.42;91.30;100828.89;1675931;84;20413;-65
2022/02/28 01:34:14;;;;;;;;;;;;;;;-2.40;91.45;100830.04;1675973;85;20093;-65
2022/02/28 01:36:41;;;;;;;;;;;;;;;-2.42;91.37;100831.59;1676042;85;21110;-65
2022/02/28 01:39:07;;;;;;;;;;;;;;;-2.43;91.35;100836.65;1676332;85;20128;-65
2022/02/28 01:41:51;;;;;;;;;;;;;;;-2.45;91.47;100827.95;1675898;85;20169;-66
2022/02/28 01:44:17;;;;;;;;;;;;;;;-2.47;91.44;100821.94;1675930;85;20492;-66
2022/02/28 01:47:03;;;;;;;;;;;;;;;-2.49;91.54;100825.86;1675948;85;20483;-64
2022/02/28 01:49:31;;;;;;;;;;;;;;;-2.51;91.78;100822.02;1675992;85;21102;-64
2022/02/28 01:51:58;;;;;;;;;;;;;;;-2.51;92.16;100834.13;1675841;85;20448;-65
2022/02/28 01:54:25;;;;;;;;;;;;;;;-2.48;92.46;100834.23;1675992;85;20122;-64
2022/02/28 01:56:53;;;;;;;;;;;;;;;-2.46;92.50;100828.98;1675848;85;20105;-64
2022/02/28 01:59:20;;;;;;;;;;;;;;;-2.45;92.62;100829.30;1676271;85;20101;-65
2022/02/28 02:01:47;;;;;;;;;;;;;;;-2.43;92.67;100830.44;1676058;85;21842;-64
2022/02/28 02:04:14;;;;;;;;;;;;;;;-2.40;92.85;100834.08;1675864;85;21650;-64
2022/02/28 02:06:40;;;;;;;;;;;;;;;-2.35;93.07;100837.00;1675916;85;20089;-64
2022/02/28 02:09:07;;;;;;;;;;;;;;;-2.32;93.13;100833.91;1675813;85;20081;-64
2022/02/28 02:11:52;;;;;;;;;;;;;;;-2.29;93.13;100829.44;1675916;85;20117;-65
2022/02/28 02:14:19;;;;;;;;;;;;;;;-2.28;92.95;100827.06;1648195;85;21850;-65
2022/02/28 02:16:45;;;;;;;;;;;;;;;-2.30;92.66;100825.61;1680442;85;20192;-65
2022/02/28 02:19:31;;;;;;;;;;;;;;;-2.35;92.64;100822.20;1680392;85;20129;-65
2022/02/28 02:21:58;;;;;;;;;;;;;;;-2.39;92.56;100828.50;1680281;85;20174;-66
2022/02/28 02:24:24;;;;;;;;;;;;;;;-2.43;92.45;100822.38;1680331;85;20177;-65
2022/02/28 02:26:51;;;;;;;;;;;;;;;-2.49;92.46;100824.00;1680450;85;21978;-64
2022/02/28 02:29:17;;;;;;;;;;;;;;;-2.55;92.52;100823.97;1680288;85;20520;-64
2022/02/28 02:32:09;;;;;;;;;;;;;;;-2.60;92.45;100823.22;1652795;87;20128;-64
2022/02/28 02:34:35;;;;;;;;;;;;;;;-2.66;92.63;100821.32;1653000;87;20195;-64
2022/02/28 02:37:02;;;;;;;;;;;;;;;-2.70;92.75;100822.74;1652804;87;20124;-65
2022/02/28 02:39:29;;;;;;;;;;;;;;;-2.75;92.78;100818.47;1652875;87;21950;-64
2022/02/28 02:42:14;;;;;;;;;;;;;;;-2.79;92.86;100818.04;1652761;85;20132;-64
2022/02/28 02:44:59;;;;;;;;;;;;;;;-2.85;92.91;100820.69;1652900;87;20193;-64
2022/02/28 02:47:25;;;;;;;;;;;;;;;-2.89;93.14;100820.80;1673041;86;20144;-64
2022/02/28 02:50:15;;;;;;;;;;;;;;;-2.94;93.37;100816.01;1673152;86;20523;-64
2022/02/28 02:52:42;;;;;;;;;;;;;;;-2.97;93.68;100821.77;1673389;85;21934;-63
2022/02/28 02:55:09;;;;;;;;;;;;;;;-2.98;93.87;100827.34;1644464;87;20115;-63
2022/02/28 02:57:55;;;;;;;;;;;;;;;-3.02;93.86;100822.36;1625440;87;20382;-63
2022/02/28 03:00:22;;;;;;;;;;;;;;;-3.03;94.28;100823.91;1644388;87;20128;-63
2022/02/28 03:02:53;;;;;;;;;;;;;;;-3.05;94.28;100817.89;1671422;86;20432;-63
2022/02/28 03:05:39;;;;;;;;;;;;;;;-3.11;94.17;100824.88;1644433;87;21175;-64
2022/02/28 03:08:24;;;;;;;;;;;;;;;-3.20;94.09;100820.67;1644534;87;20096;-63
2022/02/28 03:11:11;;;;;;;;;;;;;;;-3.26;94.22;100817.94;1644388;87;20128;-63
2022/02/28 03:13:40;;;;;;;;;;;;;;;-3.31;94.48;100822.55;1644611;87;20563;-63
2022/02/28 03:16:25;;;;;;;;;;;;;;;-3.36;94.60;100822.30;1651728;87;20533;-64
2022/02/28 03:18:51;;;;;;;;;;;;;;;-3.43;94.70;100814.19;1681269;85;21736;-64
2022/02/28 03:21:18;;;;;;;;;;;;;;;-3.47;94.86;100816.14;1658868;85;20093;-63
2022/02/28 03:23:44;;;;;;;;;;;;;;;-3.50;94.99;100820.55;1682665;85;20089;-64
2022/02/28 03:26:11;;;;;;;;;;;;;;;-3.55;95.08;100817.61;1687031;83;20119;-65
2022/02/28 03:28:39;;;;;;;;;;;;;;;-3.59;95.20;100814.48;1700187;83;20486;-64
2022/02/28 03:31:05;;;;;;;;;;;;;;;-3.64;95.32;100822.28;1701912;82;21810;-66
2022/02/28 03:33:31;;;;;;;;;;;;;;;-3.67;95.52;100825.34;1709557;84;20462;-65
2022/02/28 03:36:16;;;;;;;;;;;;;;;-3.69;95.81;100824.70;1707958;84;20162;-65
2022/02/28 03:38:44;;;;;;;;;;;;;;;-3.70;96.04;100832.44;1707867;84;20147;-63
2022/02/28 03:41:29;;;;;;;;;;;;;;;-3.71;96.22;100835.63;1708014;84;20119;-64
2022/02/28 03:43:55;;;;;;;;;;;;;;;-3.72;96.46;100834.48;1708029;84;21142;-65
2022/02/28 03:46:23;;;;;;;;;;;;;;;-3.73;96.51;100844.39;1707147;84;20102;-64
2022/02/28 03:49:08;;;;;;;;;;;;;;;-3.75;96.67;100846.94;1707891;84;20102;-64
2022/02/28 03:51:42;;;;;;;;;;;;;;;-3.77;97.07;100841.77;1707683;84;20118;-64
2022/02/28 03:54:28;;;;;;;;;;;;;;;-3.75;97.35;100846.43;1707929;84;20123;-64
2022/02/28 03:56:54;;;;;;;;;;;;;;;-3.73;97.63;100846.23;1708079;84;21112;-68
2022/02/28 03:59:39;;;;;;;;;;;;;;;-3.73;97.73;100842.21;1707671;84;20095;-66
2022/02/28 04:02:24;;;;;;;;;;;;;;;-3.73;97.79;100851.09;1709283;84;20086;-65
2022/02/28 04:05:11;;;;;;;;;;;;;;;-3.73;97.85;100856.46;1700321;82;20161;-66
2022/02/28 04:07:40;;;;;;;;;;;;;;;-3.75;97.86;100857.16;1714715;82;20091;-64
2022/02/28 04:10:07;;;;;;;;;;;;;;;-3.76;97.97;100858.19;1708731;84;21138;-65
2022/02/28 04:12:53;;;;;;;;;;;;;;;-3.75;98.12;100854.98;1708599;84;20139;-65
2022/02/28 04:15:19;;;;;;;;;;;;;;;-3.78;98.04;100859.39;1709014;83;20178;-64
2022/02/28 04:17:46;;;;;;;;;;;;;;;-3.81;98.07;100857.92;1709885;84;20138;-64
2022/02/28 04:20:39;;;;;;;;;;;;;;;-3.82;98.17;100860.80;1698218;84;20102;-65
2022/02/28 04:23:06;;;;;;;;;;;;;;;-3.81;98.45;100864.63;1709775;84;21176;-65
2022/02/28 04:25:51;;;;;;;;;;;;;;;-3.82;98.42;100865.66;1710113;84;20102;-64
2022/02/28 04:28:17;;;;;;;;;;;;;;;-3.84;98.34;100861.50;1709854;84;20126;-63
2022/02/28 04:30:44;;;;;;;;;;;;;;;-3.87;98.34;100863.22;1709717;82;20126;-64
2022/02/28 04:33:29;;;;;;;;;;;;;;;-3.89;98.55;100863.41;1709727;84;20102;-65
2022/02/28 04:35:55;;;;;;;;;;;;;;;-3.88;98.80;100865.58;1709870;84;21162;-64
2022/02/28 04:38:21;;;;;;;;;;;;;;;-3.88;98.84;100865.58;1709737;84;20102;-67
2022/02/28 04:40:48;;;;;;;;;;;;;;;-3.92;98.75;100864.30;1699361;84;20173;-66
2022/02/28 04:43:14;;;;;;;;;;;;;;;-3.94;98.84;100863.14;1708226;84;20163;-65
2022/02/28 04:45:41;;;;;;;;;;;;;;;-3.95;98.99;100862.81;1723527;82;20100;-65
2022/02/28 04:48:07;;;;;;;;;;;;;;;-3.94;99.14;100871.19;1740001;82;21042;-65
2022/02/28 04:50:57;;;;;;;;;;;;;;;-3.93;99.20;100874.70;1739950;82;20120;-65
2022/02/28 04:53:24;;;;;;;;;;;;;;;-3.91;99.29;100874.00;1739967;82;20140;-65
2022/02/28 04:56:08;;;;;;;;;;;;;;;-3.92;99.19;100876.36;1718385;82;20100;-64
2022/02/28 04:58:53;;;;;;;;;;;;;;;-3.94;99.16;100877.06;1739905;82;20100;-64
2022/02/28 05:01:31;;;;;;;;;;;;;;;-3.94;99.31;100879.75;1705236;82;21178;-65
2022/02/28 05:04:00;;;;;;;;;;;;;;;-3.92;99.37;100876.36;1740126;82;20427;-66
2022/02/28 05:06:26;;;;;;;;;;;;;;;-3.91;99.45;100880.71;1739921;82;20124;-66
2022/02/28 05:08:56;;;;;;;;;;;;;;;-3.88;99.64;100881.16;1714710;82;20453;-63
2022/02/28 05:11:22;;;;;;;;;;;;;;;-3.85;99.74;100882.13;1740102;82;20174;-64
2022/02/28 05:13:49;;;;;;;;;;;;;;;-3.81;99.80;100883.41;1739828;82;21139;-63
2022/02/28 05:16:18;;;;;;;;;;;;;;;-3.77;99.87;100887.89;1736077;82;20156;-65
2022/02/28 05:18:45;;;;;;;;;;;;;;;-3.73;99.85;100887.32;1732112;82;20455;-65
2022/02/28 05:21:30;;;;;;;;;;;;;;;-3.68;100.00;100894.80;1678696;84;20106;-65
2022/02/28 05:23:56;;;;;;;;;;;;;;;-3.64;100.00;100896.59;1678808;85;20489;-64
2022/02/28 05:26:22;;;;;;;;;;;;;;;-3.61;99.94;100897.56;1694296;83;20578;-64
2022/02/28 05:28:49;;;;;;;;;;;;;;;-3.62;99.96;100899.41;1732231;82;20600;-64
2022/02/28 05:31:15;;;;;;;;;;;;;;;-3.60;100.00;100894.69;1712902;82;20406;-64
2022/02/28 05:33:42;;;;;;;;;;;;;;;-3.56;100.00;100896.48;1707386;84;20111;-65
2022/02/28 05:36:09;;;;;;;;;;;;;;;-3.54;100.00;100894.44;1707316;83;20098;-65
2022/02/28 05:38:55;;;;;;;;;;;;;;;-3.51;100.00;100892.71;1707449;84;20122;-64
2022/02/28 05:41:23;;;;;;;;;;;;;;;-3.44;100.00;100897.09;1707698;84;20402;-64
2022/02/28 05:43:54;;;;;;;;;;;;;;;-3.41;100.00;100895.38;1726263;83;20096;-64
2022/02/28 05:46:22;;;;;;;;;;;;;;;-3.34;100.00;100899.47;1732263;83;20395;-64
2022/02/28 05:48:56;;;;;;;;;;;;;;;-3.30;100.00;100898.05;1731458;82;20101;-64
2022/02/28 05:51:26;;;;;;;;;;;;;;;-3.23;100.00;100905.66;1731931;82;20548;-64
2022/02/28 05:53:53;;;;;;;;;;;;;;;-3.17;100.00;100901.37;1732237;82;20419;-64
2022/02/28 05:56:38;;;;;;;;;;;;;;;-3.11;100.00;100908.16;1732017;83;20137;-64
2022/02/28 05:59:04;;;;;;;;;;;;;;;-3.07;100.00;100906.74;1732029;82;20132;-64
2022/02/28 06:01:32;;;;;;;;;;;;;;;-3.03;100.00;100909.36;1709781;82;20442;-64
2022/02/28 06:03:58;;;;;;;;;;;;;;;-2.97;100.00;100909.09;1675091;84;21167;-65
2022/02/28 06:06:42;;;;;;;;;;;;;;;-2.92;100.00;100913.38;1671718;84;20145;-64
2022/02/28 06:09:09;;;;;;;;;;;;;;;-2.86;100.00;100908.53;1678008;84;20444;-64
2022/02/28 06:11:36;;;;;;;;;;;;;;;-2.79;100.00;100910.77;1673110;85;20365;-65
2022/02/28 06:14:24;;;;;;;;;;;;;;;-2.72;99.96;100910.30;1662103;85;20185;-64
2022/02/28 06:16:50;;;;;;;;;;;;;;;-2.61;100.00;100917.51;1671954;85;20645;-63
2022/02/28 06:19:18;;;;;;;;;;;;;;;-2.53;99.88;100920.88;1687063;85;20459;-64
2022/02/28 06:21:45;;;;;;;;;;;;;;;-2.46;99.75;100919.58;1685552;84;20118;-66
2022/02/28 06:24:12;;;;;;;;;;;;;;;-2.37;99.75;100919.73;1671013;86;20506;-66
2022/02/28 06:26:38;;;;;;;;;;;;;;;-2.28;99.68;100923.91;1671146;85;20155;-66
2022/02/28 06:29:04;;;;;;;;;;;;;;;-2.20;99.53;100926.43;1671111;86;21069;-65
2022/02/28 06:31:31;;;;;;;;;;;;;;;-2.12;99.32;100928.13;1669728;84;20154;-65
2022/02/28 06:33:57;;;;;;;;;;;;;;;-2.05;99.00;100933.03;1669795;86;20179;-65
2022/02/28 06:36:23;;;;;;;;;;;;;;;-2.00;98.75;100934.61;1669556;85;20472;-66
2022/02/28 06:39:08;;;;;;;;;;;;;;;-1.92;98.60;100938.48;1669796;86;20166;-66
2022/02/28 06:41:36;;;;;;;;;;;;;;;-1.85;98.39;100942.55;1669821;86;21152;-68
2022/02/28 06:44:03;;;;;;;;;;;;;;;-1.77;98.18;100945.89;1674690;84;20167;-66
2022/02/28 06:46:30;;;;;;;;;;;;;;;-1.73;97.58;100947.12;1683291;84;20156;-67
2022/02/28 06:48:56;;;;;;;;;;;;;;;-1.68;97.60;100950.05;1671107;86;20173;-67
2022/02/28 06:51:41;;;;;;;;;;;;;;;-1.58;97.47;100957.74;1671245;86;20142;-67
2022/02/28 06:54:07;;;;;;;;;;;;;;;-1.46;97.13;100955.30;1670981;86;21148;-67
2022/02/28 06:56:51;;;;;;;;;;;;;;;-1.34;97.81;100950.47;1690989;83;20494;-68
2022/02/28 06:59:36;;;;;;;;;;;;;;;-1.15;96.73;100958.77;1697994;84;20195;-67
2022/02/28 07:02:03;;;;;;;;;;;;;;;-0.99;95.31;100954.33;1698930;84;20132;-67
2022/02/28 07:05:05;;;;;;;;;;;;;;;-0.67;94.47;100952.17;1698969;84;20510;-66
2022/02/28 07:07:32;;;;;;;;;;;;;;;0.05;91.71;100958.96;1699319;84;21740;-66
2022/02/28 07:10:04;;;;;;;;;;;;;;;0.64;87.02;100950.06;1675229;84;20120;-72
2022/02/28 07:12:30;;;;;;;;;;;;;;;1.08;82.13;100948.86;1698379;84;21056;-72
2022/02/28 07:14:59;;;;;;;;;;;;;;;1.50;81.42;100949.42;1698305;84;20443;-65
2022/02/28 07:17:44;;;;;;;;;;;;;;;1.90;78.70;100949.83;1701721;84;20147;-69
2022/02/28 07:20:11;;;;;;;;;;;;;;;2.16;72.76;100946.53;1707269;84;21144;-71
2022/02/28 07:22:56;;;;;;;;;;;;;;;2.45;71.59;100940.84;1707313;84;20171;-71
2022/02/28 07:25:40;;;;;;;;;;;;;;;2.79;70.05;100943.41;1707570;84;20199;-72
2022/02/28 07:28:07;;;;;;;;;;;;;;;3.08;67.47;100942.52;1707735;84;20158;-70
2022/02/28 07:30:33;;;;;;;;;;;;;;;3.28;65.74;100949.82;1702452;84;20205;-70
2022/02/28 07:33:01;;;;;;;;;;;;;;;3.41;64.86;100950.14;1708873;84;40180;-70
2022/02/28 07:35:27;;;;;;;;;;;;;;;3.53;64.19;100946.88;1707551;84;20131;-70
2022/02/28 07:37:54;;;;;;;;;;;;;;;3.65;61.69;100949.59;1707413;84;20151;-71
2022/02/28 07:40:39;;;;;;;;;;;;;;;3.63;59.19;100950.36;1707470;84;20119;-73
2022/02/28 07:43:06;;;;;;;;;;;;;;;3.52;59.62;100949.82;1707202;84;20166;-74
2022/02/28 07:45:32;;;;;;;;;;;;;;;3.60;60.14;100944.04;1707264;84;21151;-72
2022/02/28 07:47:59;;;;;;;;;;;;;;;3.78;60.16;100939.85;1707615;84;20167;-70
2022/02/28 07:50:43;;;;;;;;;;;;;;;4.00;59.09;100941.43;1708288;83;20139;-75
2022/02/28 07:53:11;;;;;;;;;;;;;;;4.11;55.77;100941.09;1704607;84;20138;-66
2022/02/28 07:55:55;;;;;;;;;;;;;;;4.06;55.06;100930.94;1704741;84;20091;-70
2022/02/28 07:58:40;;;;;;;;;;;;;;;4.10;54.54;100932.11;1704438;84;20126;-74
2022/02/28 08:01:24;;;;;;;;;;;;;;;4.17;55.04;100931.45;1698430;84;20147;-69
2022/02/28 08:03:51;;;;;;;;;;;;;;;4.16;54.73;100935.23;1710849;84;20118;-68
2022/02/28 08:06:19;;;;;;;;;;;;;;;4.20;54.61;100926.89;1710627;84;20138;-67
2022/02/28 08:09:03;;;;;;;;;;;;;;;4.33;54.19;100925.80;1710583;84;20098;-67
2022/02/28 08:11:33;;;;;;;;;;;;;;;4.59;53.92;100919.80;1710806;84;21142;-67
2022/02/28 08:14:00;;;;;;;;;;;;;;;4.74;52.99;100916.50;1710863;84;20272;-68
2022/02/28 08:16:27;;;;;;;;;;;;;;;4.88;50.73;100918.39;1693599;84;20089;-68
2022/02/28 08:18:53;;;;;;;;;;;;;;;4.86;50.53;100918.63;1681896;85;20112;-66
2022/02/28 08:21:38;;;;;;;;;;;;;;;5.01;50.00;100928.14;1682278;85;20109;-66
2022/02/28 08:24:05;;;;;;;;;;;;;;;5.06;48.26;100920.07;1682171;85;21054;-65
2022/02/28 08:26:31;;;;;;;;;;;;;;;4.97;50.10;100924.55;1682112;85;20152;-67
2022/02/28 08:29:15;;;;;;;;;;;;;;;5.14;50.71;100923.75;1682312;85;20171;-66
2022/02/28 08:31:42;;;;;;;;;;;;;;;5.48;49.63;100921.83;1709415;82;20110;-66
2022/02/28 08:34:26;;;;;;;;;;;;;;;5.61;47.99;100918.23;1709452;82;20206;-66
2022/02/28 08:36:53;;;;;;;;;;;;;;;5.74;46.49;100921.14;1704652;83;21147;-66
2022/02/28 08:39:19;;;;;;;;;;;;;;;5.80;46.49;100918.75;1705052;84;20270;-68
2022/02/28 08:41:45;;;;;;;;;;;;;;;5.88;45.32;100911.50;1709070;83;20201;-66
2022/02/28 08:44:12;;;;;;;;;;;;;;;5.99;45.98;100917.12;1709177;82;20090;-68
2022/02/28 08:46:38;;;;;;;;;;;;;;;6.17;46.04;100917.66;1709252;84;20170;-67
2022/02/28 08:49:06;;;;;;;;;;;;;;;6.30;46.72;100916.45;1709199;84;21152;-67
2022/02/28 08:51:33;;;;;;;;;;;;;;;6.54;45.72;100925.16;1709139;84;20107;-67
2022/02/28 08:53:59;;;;;;;;;;;;;;;6.74;45.13;100925.94;1709019;84;20078;-69
2022/02/28 08:56:43;;;;;;;;;;;;;;;6.87;44.69;100926.35;1708513;84;20450;-67
2022/02/28 08:59:09;;;;;;;;;;;;;;;7.17;43.98;100929.06;1709535;84;20463;-71
2022/02/28 09:01:36;;;;;;;;;;;;;;;7.34;42.49;100930.30;1709151;84;21147;-68
2022/02/28 09:04:21;;;;;;;;;;;;;;;7.29;41.57;100929.72;1707800;84;20162;-69
2022/02/28 09:06:53;;;;;;;;;;;;;;;7.25;42.55;100929.95;1705570;84;20237;-67
2022/02/28 09:09:20;;;;;;;;;;;;;;;7.52;42.67;100925.23;1709269;84;20102;-68
2022/02/28 09:11:46;;;;;;;;;;;;;;;7.77;41.64;100921.86;1709067;84;20178;-69
2022/02/28 09:14:13;;;;;;;;;;;;;;;7.83;40.79;100915.34;1707011;84;21162;-69
2022/02/28 09:17:04;;;;;;;;;;;;;;;7.84;40.55;100918.89;1689526;84;20106;-70
2022/02/28 09:19:49;;;;;;;;;;;;;;;7.67;39.67;100924.52;1704867;83;20103;-70
2022/02/28 09:22:33;;;;;;;;;;;;;;;7.47;40.06;100918.39;1700467;84;20145;-68
2022/02/28 09:25:20;;;;;;;;;;;;;;;7.42;40.43;100913.44;1694477;83;20134;-63
2022/02/28 09:27:48;;;;;;;;;;;;;;;7.61;43.10;100904.53;1704732;83;21001;-66
2022/02/28 09:30:33;;;;;;;;;;;;;;;8.08;40.75;100911.09;1710626;82;20094;-64
2022/02/28 09:33:00;;;;;;;;;;;;;;;8.43;39.48;100907.16;1709817;84;20135;-67
2022/02/28 09:35:27;;;;;;;;;;;;;;;8.37;39.01;100898.65;1707918;84;20138;-67
2022/02/28 09:37:55;;;;;;;;;;;;;;;8.38;39.04;100900.84;1683649;84;20759;-72
2022/02/28 09:40:26;;;;;;;;;;;;;;;8.42;39.83;100897.84;1708611;84;21193;-74
2022/02/28 09:43:31;;;;;;;;;;;;;;;8.56;38.54;100892.14;1705511;82;20139;-66
2022/02/28 09:46:16;;;;;;;;;;;;;;;8.79;38.53;100889.43;1704700;84;20584;-66
2022/02/28 09:49:05;;;;;;;;;;;;;;;8.95;37.37;100896.58;1669643;84;20442;-69
2022/02/28 09:51:36;;;;;;;;;;;;;;;9.01;37.20;100895.48;1686340;84;20497;-66
2022/02/28 09:54:04;;;;;;;;;;;;;;;8.96;37.77;100898.77;1694331;84;21139;-67
2022/02/28 09:56:54;;;;;;;;;;;;;;;9.10;37.38;100894.41;1702948;84;20156;-67
2022/02/28 09:59:40;;;;;;;;;;;;;;;9.33;37.36;100888.90;1704409;84;20474;-67
2022/02/28 10:02:08;;;;;;;;;;;;;;;9.72;36.04;100885.02;1706682;83;20151;-67
2022/02/28 10:04:35;;;;;;;;;;;;;;;9.78;35.24;100880.62;1706596;84;20151;-67
2022/02/28 10:07:17;;;;;;;;;;;;;;;9.60;35.51;100881.20;1705656;83;21154;-67
2022/02/28 10:09:43;;;;;;;;;;;;;;;9.40;35.98;100876.56;1680364;84;20167;-67
2022/02/28 10:12:12;;;;;;;;;;;;;;;9.34;36.88;100877.66;1706401;84;20230;-69
2022/02/28 10:14:38;;;;;;;;;;;;;;;9.64;35.29;100874.61;1706680;84;20119;-65
2022/02/28 10:17:06;;;;;;;;;;;;;;;9.69;35.21;100876.80;1706467;84;20127;-66
2022/02/28 10:19:34;;;;;;;;;;;;;;;9.64;35.57;100877.36;1703921;83;20235;-68
2022/02/28 10:22:02;;;;;;;;;;;;;;;9.80;35.80;100871.56;1708822;84;20194;-67
2022/02/28 10:24:48;;;;;;;;;;;;;;;9.93;35.79;100866.83;1708407;84;20171;-66
2022/02/28 10:27:20;;;;;;;;;;;;;;;10.05;35.12;100865.15;1705107;84;20142;-66
2022/02/28 10:30:06;;;;;;;;;;;;;;;10.29;35.06;100865.36;1705975;84;20474;-67
2022/02/28 10:32:50;;;;;;;;;;;;;;;10.64;33.35;100853.88;1691412;84;21183;-67
2022/02/28 10:38:29;;;;;;;;;;;;;;;11.20;33.04;100846.84;1708798;84;20214;-65
2022/02/28 10:40:55;;;;;;;;;;;;;;;11.38;32.61;100848.61;1708159;84;20115;-71
2022/02/28 10:43:29;;;;;;;;;;;;;;;11.52;31.59;100838.02;1708695;82;20115;-70
2022/02/28 10:45:57;;;;;;;;;;;;;;;11.35;32.14;100847.81;1707304;84;21157;-63
2022/02/28 10:48:25;;;;;;;;;;;;;;;11.19;32.48;100843.01;1708887;84;20470;-63
2022/02/28 10:51:14;;;;;;;;;;;;;;;11.00;33.09;100840.69;1708866;84;20112;-67
2022/02/28 10:53:41;;;;;;;;;;;;;;;10.87;32.34;100837.52;1708946;84;20127;-68
2022/02/28 10:56:07;;;;;;;;;;;;;;;10.75;33.63;100830.74;1708513;84;20167;-69
2022/02/28 10:58:52;;;;;;;;;;;;;;;10.52;34.06;100830.34;1708560;84;20126;-71
2022/02/28 11:01:18;;;;;;;;;;;;;;;10.37;34.02;100828.27;1708594;84;20572;-72
2022/02/28 11:04:05;;;;;;;;;;;;;;;10.11;34.10;100826.16;1708649;84;20127;-67
2022/02/28 11:06:31;;;;;;;;;;;;;;;10.24;34.71;100826.41;1708733;84;20183;-68
2022/02/28 11:09:16;;;;;;;;;;;;;;;10.55;33.86;100822.91;1708659;84;20131;-73
2022/02/28 11:11:43;;;;;;;;;;;;;;;10.82;33.49;100817.51;1706053;84;21796;-70
2022/02/28 11:14:11;;;;;;;;;;;;;;;10.94;33.64;100814.39;1708656;84;20473;-67
2022/02/28 11:16:55;;;;;;;;;;;;;;;10.99;32.83;100824.76;1708835;84;20140;-69
2022/02/28 11:19:23;;;;;;;;;;;;;;;10.84;33.34;100828.48;1708841;84;20119;-70
2022/02/28 11:22:09;;;;;;;;;;;;;;;10.85;33.15;100821.05;1708720;84;20151;-69
2022/02/28 11:24:54;;;;;;;;;;;;;;;10.84;33.43;100833.15;1708948;84;20139;-71
2022/02/28 11:27:40;;;;;;;;;;;;;;;10.81;33.69;100828.23;1706275;84;20196;-69
2022/02/28 11:30:09;;;;;;;;;;;;;;;10.65;33.72;100824.77;1709150;84;20131;-71
2022/02/28 11:32:36;;;;;;;;;;;;;;;10.48;33.46;100825.14;1710120;84;20119;-68
2022/02/28 11:35:40;;;;;;;;;;;;;;;10.36;33.91;100823.33;1710195;84;20115;-72
2022/02/28 11:38:19;;;;;;;;;;;;;;;10.40;33.86;100817.51;1710032;83;21066;-62
2022/02/28 11:40:57;;;;;;;;;;;;;;;10.63;33.50;100817.37;1709362;84;20151;-66
2022/02/28 11:43:25;;;;;;;;;;;;;;;10.80;33.12;100811.48;1709032;84;20462;-61
2022/02/28 11:46:03;;;;;;;;;;;;;;;10.87;31.95;100799.61;1708768;84;20151;-61
2022/02/28 11:48:52;;;;;;;;;;;;;;;10.86;32.41;100821.32;1708832;84;20131;-62
2022/02/28 11:51:30;;;;;;;;;;;;;;;10.87;32.09;100820.22;1708942;84;21268;-62
2022/02/28 11:54:00;;;;;;;;;;;;;;;11.06;31.52;100811.52;1708875;84;20143;-62
2022/02/28 11:56:37;;;;;;;;;;;;;;;11.16;31.77;100814.17;1682740;84;20214;-62
2022/02/28 11:59:22;;;;;;;;;;;;;;;11.13;31.14;100820.80;1708811;84;20127;-62
2022/02/28 12:02:02;;;;;;;;;;;;;;;10.98;30.83;100818.17;1708591;84;20130;-62
2022/02/28 12:04:37;;;;;;;;;;;;;;;10.78;32.04;100817.81;1708863;84;21796;-62
2022/02/28 12:07:14;;;;;;;;;;;;;;;11.02;31.65;100822.81;1708703;84;20115;-62
2022/02/28 12:09:45;;;;;;;;;;;;;;;11.14;31.21;100823.81;1708707;84;20130;-62
2022/02/28 12:12:31;;;;;;;;;;;;;;;11.11;30.93;100830.70;1708878;84;20127;-62
2022/02/28 12:15:17;;;;;;;;;;;;;;;11.19;30.96;100829.27;1706481;84;20127;-66
2022/02/28 12:17:50;;;;;;;;;;;;;;;11.41;29.72;100825.48;1701309;84;22671;-61
2022/02/28 12:20:34;;;;;;;;;;;;;;;11.37;30.19;100834.05;1676763;85;20121;-62
2022/02/28 12:23:24;;;;;;;;;;;;;;;11.42;30.30;100823.55;1649319;86;20304;-62
2022/02/28 12:26:08;;;;;;;;;;;;;;;11.72;29.41;100830.08;1695723;84;20115;-63
2022/02/28 12:28:52;;;;;;;;;;;;;;;11.80;28.85;100828.09;1687402;84;20161;-63
2022/02/28 12:31:32;;;;;;;;;;;;;;;11.80;29.43;100820.40;1672198;84;21212;-63
2022/02/28 12:34:03;;;;;;;;;;;;;;;11.63;29.52;100812.58;1667617;86;20125;-62
2022/02/28 12:36:31;;;;;;;;;;;;;;;11.58;29.75;100812.63;1667568;86;20596;-64
2022/02/28 12:39:00;;;;;;;;;;;;;;;11.57;29.11;100808.24;1669039;84;20461;-62
2022/02/28 12:41:32;;;;;;;;;;;;;;;11.46;29.54;100802.61;1696727;83;20103;-62
2022/02/28 12:44:02;;;;;;;;;;;;;;;11.47;29.13;100812.50;1694140;84;21175;-62
2022/02/28 12:46:31;;;;;;;;;;;;;;;11.31;29.04;100809.64;1692331;85;20126;-62
2022/02/28 12:49:17;;;;;;;;;;;;;;;11.41;28.80;100794.42;1695555;84;20099;-62
2022/02/28 12:52:02;;;;;;;;;;;;;;;11.78;28.44;100800.06;1696153;84;20123;-63
2022/02/28 12:54:30;;;;;;;;;;;;;;;12.00;28.41;100809.15;1695678;84;20091;-62
2022/02/28 12:56:59;;;;;;;;;;;;;;;12.28;28.84;100801.88;1671287;84;21136;-65
2022/02/28 12:59:45;;;;;;;;;;;;;;;12.51;28.03;100800.17;1667131;86;20441;-63
2022/02/28 13:02:10;;;;;;;;;;;;;;;12.54;28.55;100799.02;1640457;87;20164;-64
2022/02/28 13:04:38;;;;;;;;;;;;;;;12.54;27.96;100798.20;1644527;86;20157;-64
2022/02/28 13:07:12;;;;;;;;;;;;;;;12.67;28.04;100793.88;1656140;86;20121;-62
2022/02/28 13:09:43;;;;;;;;;;;;;;;12.77;26.82;100798.64;1694388;84;20127;-63
2022/02/28 13:12:09;;;;;;;;;;;;;;;12.63;26.85;100807.98;1675545;85;20117;-65